Time;durP1;ratioP1;P1;durP2;ratioP2;P2;SDS_P1;SDS_P2;PMS_P1;PMS_P2;Temp;Humidity;BMP_temperature;BMP_pressure;BME280_temperature;BME280_humidity;BME280_pressure;Samples;Min_cycle;Max_cycle;Signal;HPM_P1;HPM_P2
2022/01/13 00:02:16;;;;;;;1.55;0.63;;;4.70;99.90;;;;;;5037127;28;20053;-88
2022/01/13 00:04:42;;;;;;;0.47;0.47;;;4.70;99.90;;;;;;5036636;28;20473;-88
2022/01/13 00:07:10;;;;;;;0.80;0.80;;;4.70;99.90;;;;;;5036748;28;20080;-88
2022/01/13 00:09:36;;;;;;;0.55;0.13;;;5.20;99.90;;;;;;5036195;28;20037;-88
2022/01/13 00:12:02;;;;;;;3.45;0.52;;;5.00;99.90;;;;;;5052544;28;20037;-88
2022/01/13 00:19:35;;;;;;;0.50;0.30;;;4.60;99.90;;;;;;5052768;28;20045;-88
2022/01/13 00:24:47;;;;;;;2.40;0.20;;;4.70;99.90;;;;;;5052524;28;20459;-88
2022/01/13 00:27:14;;;;;;;2.00;1.63;;;4.70;99.90;;;;;;5035928;28;20539;-88
2022/01/13 00:29:43;;;;;;;0.28;0.28;;;4.70;99.90;;;;;;5036242;28;20460;-88
2022/01/13 00:32:10;;;;;;;0.45;0.28;;;4.80;99.90;;;;;;5036214;28;20049;-88
2022/01/13 00:34:36;;;;;;;0.95;0.63;;;4.70;99.90;;;;;;5036187;28;20049;-88
2022/01/13 00:37:02;;;;;;;0.00;0.00;;;4.70;99.90;;;;;;5036151;28;20063;-88
2022/01/13 00:39:28;;;;;;;0.28;0.25;;;4.70;99.90;;;;;;5052489;28;20063;-88
2022/01/13 00:41:54;;;;;;;0.47;0.45;;;4.80;99.90;;;;;;5036011;28;20396;-88
2022/01/13 00:44:21;;;;;;;1.65;0.98;;;4.70;99.90;;;;;;5036040;28;20072;-88
2022/01/13 00:46:59;;;;;;;1.13;0.38;;;4.80;99.90;;;;;;5036008;28;20052;-88
2022/01/13 00:49:25;;;;;;;2.40;0.47;;;4.80;99.90;;;;;;5037110;28;20037;-88
2022/01/13 00:51:51;;;;;;;5.32;0.38;;;4.80;99.90;;;;;;5056568;28;20052;-88
2022/01/13 00:54:17;;;;;;;1.30;0.55;;;4.80;99.90;;;;;;5056669;28;20506;-88
2022/01/13 00:56:42;;;;;;;0.10;0.10;;;4.80;99.90;;;;;;5040199;28;20045;-88
2022/01/13 00:59:11;;;;;;;0.63;0.38;;;4.80;99.90;;;;;;5056318;28;20041;-88
2022/01/13 01:01:40;;;;;;;3.22;0.75;;;4.90;99.90;;;;;;5056715;28;20053;-88
2022/01/13 01:04:06;;;;;;;2.55;0.60;;;5.70;99.90;;;;;;5056505;28;20071;-88
2022/01/13 01:06:33;;;;;;;0.90;0.80;;;4.90;99.90;;;;;;5039657;28;20049;-88
2022/01/13 01:08:59;;;;;;;0.47;0.47;;;4.80;99.90;;;;;;5039446;28;20511;-88
2022/01/13 01:11:26;;;;;;;1.65;0.68;;;4.90;99.90;;;;;;5056447;28;20045;-89
2022/01/13 01:13:56;;;;;;;0.47;0.47;;;4.90;99.90;;;;;;5039799;28;20084;-89
2022/01/13 01:16:22;;;;;;;1.15;0.82;;;4.90;99.90;;;;;;5039494;28;20052;-88
2022/01/13 01:18:55;;;;;;;0.40;0.40;;;4.90;99.90;;;;;;5039271;28;20048;-89
2022/01/13 01:26:31;;;;;;;0.55;0.55;;;5.00;99.90;;;;;;5056236;28;20060;-88
2022/01/13 01:31:36;;;;;;;0.30;0.30;;;4.90;99.90;;;;;;5055995;28;20045;-88
2022/01/13 01:36:32;;;;;;;2.40;1.10;;;4.90;99.90;;;;;;5055791;28;20057;-88
2022/01/13 01:38:59;;;;;;;1.38;1.05;;;4.90;99.90;;;;;;5038805;28;20098;-89
2022/01/13 01:41:26;;;;;;;2.05;1.27;;;4.90;99.90;;;;;;5039150;28;20068;-88
2022/01/13 01:43:55;;;;;;;1.77;0.63;;;5.00;99.90;;;;;;5039109;28;20400;-89
2022/01/13 01:46:20;;;;;;;0.60;0.45;;;5.00;99.90;;;;;;5039125;28;20076;-88
2022/01/13 01:48:46;;;;;;;0.15;0.15;;;5.00;99.90;;;;;;5039203;28;20370;-89
2022/01/13 01:51:12;;;;;;;5.22;0.55;;;5.20;99.90;;;;;;5055388;28;20128;-88
2022/01/13 01:53:38;;;;;;;0.45;0.25;;;5.10;99.90;;;;;;5055392;28;20041;-88
2022/01/13 01:56:04;;;;;;;0.98;0.68;;;4.80;99.90;;;;;;5055606;28;20576;-88
2022/01/13 01:58:30;;;;;;;0.38;0.38;;;5.00;99.90;;;;;;5055417;28;20048;-89
2022/01/13 02:00:56;;;;;;;1.58;0.30;;;5.10;99.90;;;;;;5036841;28;20083;-88
2022/01/13 02:03:26;;;;;;;0.00;0.00;;;5.50;99.90;;;;;;5055284;28;20051;-89
2022/01/13 02:05:52;;;;;;;0.32;0.32;;;5.30;99.90;;;;;;5038626;28;20044;-89
2022/01/13 02:08:18;;;;;;;26.98;2.42;;;5.00;99.90;;;;;;5038269;28;20045;-88
2022/01/13 02:10:45;;;;;;;2.05;1.35;;;5.00;99.90;;;;;;5038647;28;20060;-89
2022/01/13 02:13:14;;;;;;;0.00;0.00;;;5.30;99.90;;;;;;5055071;28;20485;-88
2022/01/13 02:16:01;;;;;;;0.38;0.00;;;5.10;99.90;;;;;;5054895;28;20456;-88
2022/01/13 02:18:30;;;;;;;0.45;0.43;;;5.10;99.90;;;;;;5054961;28;20493;-88
2022/01/13 02:20:57;;;;;;;0.22;0.10;;;5.10;99.90;;;;;;5038176;28;20037;-88
2022/01/13 02:23:39;;;;;;;5.28;1.45;;;5.10;99.90;;;;;;5038364;28;20056;-89
2022/01/13 02:26:09;;;;;;;0.82;0.13;;;5.10;99.90;;;;;;5038578;28;20460;-88
2022/01/13 02:28:35;;;;;;;1.23;1.00;;;5.10;99.90;;;;;;5038188;28;20045;-88
2022/01/13 02:31:02;;;;;;;3.13;0.57;;;5.10;99.90;;;;;;5037970;28;20480;-89
2022/01/13 02:33:28;;;;;;;11.25;0.70;;;5.10;99.90;;;;;;5055022;28;20493;-88
2022/01/13 02:35:54;;;;;;;1.35;0.85;;;5.20;99.90;;;;;;5037949;28;20045;-89
2022/01/13 02:38:21;;;;;;;0.98;0.70;;;5.20;99.90;;;;;;5054787;28;20071;-89
2022/01/13 02:40:53;;;;;;;0.03;0.00;;;5.20;99.90;;;;;;5037789;28;20071;-89
2022/01/13 02:43:19;;;;;;;0.35;0.35;;;5.20;99.90;;;;;;5055103;28;20166;-89
2022/01/13 02:46:02;;;;;;;0.68;0.20;;;6.70;99.90;;;;;;5037654;28;20037;-89
2022/01/13 02:48:30;;;;;;;0.00;0.00;;;5.30;99.90;;;;;;5054333;28;20489;-89
2022/01/13 02:50:58;;;;;;;0.68;0.63;;;4.60;99.90;;;;;;5037880;28;20056;-88
2022/01/13 02:53:24;;;;;;;0.05;0.05;;;5.20;99.90;;;;;;5037864;28;20508;-89
2022/01/13 02:55:51;;;;;;;1.45;0.35;;;5.20;99.90;;;;;;5037914;28;20049;-89
2022/01/13 02:58:17;;;;;;;0.00;0.00;;;6.10;99.90;;;;;;5053999;28;20515;-89
2022/01/13 03:00:44;;;;;;;0.93;0.93;;;5.40;99.90;;;;;;5037103;28;20057;-89
2022/01/13 03:03:09;;;;;;;0.17;0.17;;;5.20;99.90;;;;;;5054171;28;20066;-89
2022/01/13 03:05:38;;;;;;;0.52;0.35;;;5.20;99.90;;;;;;5037502;28;20508;-89
2022/01/13 03:08:06;;;;;;;0.10;0.10;;;5.20;99.90;;;;;;5037464;28;20141;-89
2022/01/13 03:10:32;;;;;;;0.00;0.00;;;5.20;99.90;;;;;;5054119;28;20540;-89
2022/01/13 03:12:59;;;;;;;0.73;0.15;;;5.30;99.90;;;;;;5036933;28;20080;-89
2022/01/13 03:15:24;;;;;;;0.65;0.65;;;5.50;99.90;;;;;;5054088;28;20084;-89
2022/01/13 03:17:50;;;;;;;1.27;0.50;;;5.20;99.90;;;;;;5037411;28;20457;-89
2022/01/13 03:20:16;;;;;;;0.15;0.15;;;5.20;99.90;;;;;;5036677;28;20045;-88
2022/01/13 03:22:45;;;;;;;0.52;0.50;;;5.20;99.90;;;;;;5037691;28;20081;-89
2022/01/13 03:25:12;;;;;;;4.38;0.43;;;5.30;99.90;;;;;;5037224;28;20136;-89
2022/01/13 03:27:40;;;;;;;2.85;0.77;;;5.20;99.90;;;;;;5037167;28;20098;-89
2022/01/13 03:30:08;;;;;;;0.75;0.63;;;5.40;99.90;;;;;;5036977;28;20045;-89
2022/01/13 03:32:38;;;;;;;1.10;0.40;;;5.10;99.90;;;;;;5037896;28;20041;-89
2022/01/13 03:35:05;;;;;;;0.15;0.00;;;5.10;99.90;;;;;;5054270;28;20064;-88
2022/01/13 03:37:32;;;;;;;1.80;0.60;;;5.10;99.90;;;;;;5037024;28;20052;-89
2022/01/13 03:39:58;;;;;;;0.00;0.00;;;5.20;99.90;;;;;;5053564;28;20041;-89
2022/01/13 03:42:25;;;;;;;0.38;0.38;;;5.10;99.90;;;;;;5036950;28;20053;-89
2022/01/13 03:44:51;;;;;;;0.00;0.00;;;5.20;99.90;;;;;;5036845;28;20049;-89
2022/01/13 03:47:17;;;;;;;0.60;0.50;;;6.60;99.90;;;;;;5037131;28;20045;-89
2022/01/13 03:49:43;;;;;;;4.68;0.20;;;5.10;99.90;;;;;;5037033;28;20048;-89
2022/01/13 03:52:24;;;;;;;0.30;0.30;;;5.10;99.90;;;;;;5053465;28;20393;-89
2022/01/13 03:55:31;;;;;;;1.30;0.50;;;5.90;99.90;;;;;;5036505;28;20045;-89
2022/01/13 03:58:33;;;;;;;0.15;0.15;;;5.10;99.90;;;;;;5053209;28;20048;-89
2022/01/13 04:01:37;;;;;;;0.08;0.08;;;5.10;99.90;;;;;;5052913;28;20063;-89
2022/01/13 04:04:02;;;;;;;1.20;0.30;;;5.10;99.90;;;;;;5036482;28;20060;-89
2022/01/13 04:06:41;;;;;;;0.38;0.38;;;5.10;99.90;;;;;;5053691;28;20048;-89
2022/01/13 04:09:28;;;;;;;0.30;0.30;;;5.10;99.90;;;;;;5036627;28;20080;-89
2022/01/13 04:11:54;;;;;;;0.25;0.03;;;5.10;99.90;;;;;;5036501;28;20049;-89
2022/01/13 04:14:28;;;;;;;0.20;0.10;;;5.10;99.90;;;;;;5036477;28;20052;-88
2022/01/13 04:16:54;;;;;;;0.20;0.20;;;5.10;99.90;;;;;;5053179;28;20045;-89
2022/01/13 04:19:20;;;;;;;1.65;0.47;;;5.00;99.90;;;;;;5036558;28;20110;-89
2022/01/13 04:21:46;;;;;;;0.47;0.10;;;5.10;99.90;;;;;;5053244;28;20045;-89
2022/01/13 04:24:12;;;;;;;1.20;0.47;;;5.00;99.90;;;;;;5035523;28;20044;-88
2022/01/13 04:26:43;;;;;;;0.50;0.50;;;5.00;99.90;;;;;;5052618;28;20492;-89
2022/01/13 04:31:35;;;;;;;8.32;0.75;;;5.10;99.90;;;;;;5052641;28;20084;-88
2022/01/13 04:34:01;;;;;;;0.20;0.20;;;6.30;99.90;;;;;;5036119;28;20049;-89
2022/01/13 04:36:27;;;;;;;0.25;0.08;;;5.00;99.90;;;;;;5052339;28;20488;-89
2022/01/13 04:38:53;;;;;;;0.47;0.20;;;6.10;99.90;;;;;;5052632;28;20045;-89
2022/01/13 04:41:31;;;;;;;1.40;0.32;;;5.00;99.90;;;;;;5052852;28;20040;-89
2022/01/13 04:43:56;;;;;;;0.90;0.85;;;5.10;99.90;;;;;;5052976;28;20087;-89
2022/01/13 04:46:23;;;;;;;4.68;1.65;;;5.00;99.90;;;;;;5036308;28;20048;-89
2022/01/13 04:48:48;;;;;;;0.20;0.20;;;5.20;99.90;;;;;;5035740;28;20045;-89
2022/01/13 04:51:14;;;;;;;1.10;0.10;;;5.00;99.90;;;;;;5035990;28;20542;-89
2022/01/13 04:53:40;;;;;;;1.73;0.90;;;5.00;99.90;;;;;;5036856;28;20044;-89
2022/01/13 04:56:11;;;;;;;1.85;0.57;;;5.00;99.90;;;;;;5035820;28;20132;-89
2022/01/13 04:58:37;;;;;;;0.20;0.20;;;5.00;99.90;;;;;;5036439;28;20458;-89
2022/01/13 05:01:04;;;;;;;1.48;0.85;;;5.10;99.90;;;;;;5035396;28;20517;-89
2022/01/13 05:03:30;;;;;;;0.17;0.17;;;5.00;99.90;;;;;;5035745;28;20493;-89
2022/01/13 05:05:55;;;;;;;0.17;0.17;;;5.00;99.90;;;;;;5035861;28;20048;-89
2022/01/13 05:08:21;;;;;;;0.80;0.70;;;5.10;99.90;;;;;;5035401;28;20052;-89
2022/01/13 05:10:47;;;;;;;0.65;0.55;;;5.00;99.90;;;;;;5036470;28;20040;-89
2022/01/13 05:13:13;;;;;;;0.00;0.00;;;4.80;99.90;;;;;;5035896;28;20041;-89
2022/01/13 05:15:41;;;;;;;2.38;0.75;;;5.00;99.90;;;;;;5035831;28;20351;-89
2022/01/13 05:18:26;;;;;;;0.60;0.38;;;4.90;99.90;;;;;;5035730;28;20049;-89
2022/01/13 05:21:05;;;;;;;0.00;0.00;;;5.00;99.90;;;;;;5052512;28;20052;-89
2022/01/13 05:23:31;;;;;;;0.73;0.60;;;5.00;99.90;;;;;;5036188;28;20550;-89
2022/01/13 05:25:56;;;;;;;0.60;0.60;;;5.00;99.90;;;;;;5035351;28;20477;-89
2022/01/13 05:28:23;;;;;;;0.10;0.10;;;5.00;99.90;;;;;;5035424;28;20047;-89
2022/01/13 05:30:49;;;;;;;0.20;0.20;;;5.00;99.90;;;;;;5035373;28;20451;-89
2022/01/13 05:33:15;;;;;;;4.05;1.02;;;4.90;99.90;;;;;;5035630;28;20052;-89
2022/01/13 05:35:40;;;;;;;2.42;0.77;;;4.90;99.90;;;;;;5037308;28;20107;-89
2022/01/13 05:38:08;;;;;;;1.65;0.60;;;4.90;99.90;;;;;;5039535;28;20040;-89
2022/01/13 05:40:35;;;;;;;0.40;0.38;;;5.10;99.90;;;;;;5039170;28;20045;-89
2022/01/13 05:43:02;;;;;;;6.75;0.63;;;4.90;99.90;;;;;;5055925;28;20123;-89
2022/01/13 05:45:33;;;;;;;1.30;0.30;;;4.90;99.90;;;;;;5038839;28;20103;-89
2022/01/13 05:48:00;;;;;;;1.50;0.40;;;4.90;99.90;;;;;;5039486;28;20068;-89
2022/01/13 05:50:28;;;;;;;0.22;0.22;;;4.80;99.90;;;;;;5039427;28;20045;-89
2022/01/13 05:52:54;;;;;;;2.08;0.35;;;4.90;99.90;;;;;;5039046;28;20145;-89
2022/01/13 05:55:20;;;;;;;0.82;0.82;;;4.90;99.90;;;;;;5039275;28;20045;-89
2022/01/13 05:57:46;;;;;;;1.15;0.75;;;4.80;99.90;;;;;;5039223;28;20057;-89
2022/01/13 06:00:15;;;;;;;1.35;0.80;;;4.80;99.90;;;;;;5038532;28;20057;-89
2022/01/13 06:02:41;;;;;;;0.52;0.15;;;4.80;99.90;;;;;;5039209;28;20139;-89
2022/01/13 06:05:08;;;;;;;0.45;0.45;;;4.90;99.90;;;;;;5055565;28;20084;-89
2022/01/13 06:07:34;;;;;;;0.00;0.00;;;4.80;99.90;;;;;;5055330;28;20466;-89
2022/01/13 06:09:59;;;;;;;4.00;0.68;;;4.90;99.90;;;;;;5055164;28;20045;-89
2022/01/13 06:12:32;;;;;;;0.13;0.13;;;4.80;99.90;;;;;;5055629;28;20494;-89
2022/01/13 06:15:00;;;;;;;1.45;0.28;;;4.90;99.90;;;;;;5038762;28;20052;-89
2022/01/13 06:17:26;;;;;;;0.03;0.03;;;4.80;99.90;;;;;;5038766;28;20059;-89
2022/01/13 06:19:54;;;;;;;0.10;0.10;;;5.10;99.90;;;;;;5054868;28;20124;-89
2022/01/13 06:22:19;;;;;;;0.00;0.00;;;4.90;99.90;;;;;;5055459;28;20341;-89
2022/01/13 06:24:45;;;;;;;0.95;0.70;;;4.90;99.90;;;;;;5038628;28;20045;-89
2022/01/13 06:27:11;;;;;;;0.30;0.20;;;5.00;99.90;;;;;;5038499;28;20492;-89
2022/01/13 06:29:37;;;;;;;0.60;0.60;;;4.80;99.90;;;;;;5038705;28;20045;-89
2022/01/13 06:32:03;;;;;;;0.70;0.50;;;4.80;99.90;;;;;;5055176;28;20389;-89
2022/01/13 06:34:28;;;;;;;0.40;0.40;;;4.80;99.90;;;;;;5054920;28;20041;-89
2022/01/13 06:36:54;;;;;;;0.43;0.38;;;4.90;99.90;;;;;;5054749;28;20427;-89
2022/01/13 06:39:23;;;;;;;0.77;0.65;;;4.80;99.90;;;;;;5038196;28;20048;-89
2022/01/13 06:41:48;;;;;;;0.00;0.00;;;4.80;99.90;;;;;;5054872;28;20053;-90
2022/01/13 06:44:14;;;;;;;0.60;0.38;;;4.80;99.90;;;;;;5038396;28;20049;-89
2022/01/13 06:46:40;;;;;;;0.68;0.68;;;4.80;99.90;;;;;;5037622;28;20045;-89
2022/01/13 06:49:05;;;;;;;0.52;0.52;;;4.80;99.90;;;;;;5037965;28;20045;-89
2022/01/13 06:51:31;;;;;;;0.85;0.28;;;4.70;99.90;;;;;;5054093;28;20049;-89
2022/01/13 06:53:57;;;;;;;0.30;0.20;;;4.80;99.90;;;;;;5054584;28;20401;-90
2022/01/13 06:56:24;;;;;;;0.57;0.13;;;4.90;99.90;;;;;;5054196;28;20477;-89
2022/01/13 06:58:51;;;;;;;0.05;0.05;;;4.80;99.90;;;;;;5054533;28;20544;-89
2022/01/13 07:01:18;;;;;;;4.30;0.93;;;5.00;99.90;;;;;;5037246;28;20053;-89
2022/01/13 07:03:43;;;;;;;4.93;0.77;;;4.80;99.90;;;;;;5037760;28;20048;-89
2022/01/13 07:06:09;;;;;;;0.93;0.85;;;5.10;99.90;;;;;;5037313;28;20049;-88
2022/01/13 07:08:35;;;;;;;0.28;0.28;;;4.80;99.90;;;;;;5037861;28;20132;-88
2022/01/13 07:11:03;;;;;;;0.52;0.52;;;4.80;99.90;;;;;;5054137;28;20052;-89
2022/01/13 07:13:30;;;;;;;0.20;0.20;;;4.80;99.90;;;;;;5054110;28;20052;-89
2022/01/13 07:15:58;;;;;;;0.20;0.13;;;4.80;99.90;;;;;;5037589;28;20044;-93
2022/01/13 07:18:26;;;;;;;5.47;1.20;;;4.70;99.90;;;;;;5037599;28;20118;-92
2022/01/13 07:20:57;;;;;;;2.75;0.30;;;4.80;99.90;;;;;;5032256;28;20044;-92
2022/01/13 07:23:26;;;;;;;1.02;0.63;;;4.80;99.90;;;;;;5037660;28;20166;-90
2022/01/13 07:25:54;;;;;;;0.45;0.45;;;4.80;99.90;;;;;;5026346;28;20033;-92
2022/01/13 07:28:23;;;;;;;3.53;0.52;;;4.80;99.90;;;;;;5037629;28;20049;-90
2022/01/13 07:30:59;;;;;;;8.43;0.75;;;4.80;99.90;;;;;;5037244;28;20041;-94
2022/01/13 07:33:30;;;;;;;0.00;0.00;;;4.90;99.90;;;;;;5036812;28;20447;-91
2022/01/13 07:35:56;;;;;;;0.25;0.25;;;4.80;99.90;;;;;;5036256;28;20128;-91
2022/01/13 07:38:24;;;;;;;1.02;0.28;;;4.80;99.90;;;;;;5053465;28;20461;-91
2022/01/13 07:40:50;;;;;;;0.60;0.60;;;4.80;99.90;;;;;;5036434;28;20041;-88
2022/01/13 07:43:22;;;;;;;0.40;0.40;;;4.80;99.90;;;;;;5053362;28;20094;-92
2022/01/13 07:45:48;;;;;;;14.82;0.90;;;4.80;99.90;;;;;;5034866;28;20136;-89
2022/01/13 07:48:14;;;;;;;0.65;0.57;;;5.50;99.90;;;;;;5036079;28;20178;-87
2022/01/13 07:50:40;;;;;;;1.60;1.42;;;4.80;99.90;;;;;;5036496;28;20060;-88
2022/01/13 07:53:06;;;;;;;0.08;0.08;;;4.80;99.90;;;;;;5037242;28;20048;-90
2022/01/13 07:55:32;;;;;;;8.00;0.57;;;4.80;99.90;;;;;;5036235;28;20049;-91
2022/01/13 07:58:00;;;;;;;0.00;0.00;;;4.90;99.90;;;;;;5036139;28;20397;-90
2022/01/13 08:00:26;;;;;;;0.00;0.00;;;4.80;99.90;;;;;;5051366;28;20060;-88
2022/01/13 08:02:52;;;;;;;0.17;0.10;;;4.80;99.90;;;;;;5035801;28;20045;-89
2022/01/13 08:05:18;;;;;;;3.20;0.32;;;5.30;99.90;;;;;;5052143;28;20044;-88
2022/01/13 08:07:43;;;;;;;3.95;1.23;;;6.20;99.90;;;;;;5035661;28;20045;-88
2022/01/13 08:10:10;;;;;;;0.88;0.68;;;4.90;99.90;;;;;;5035239;28;20130;-88
2022/01/13 08:12:51;;;;;;;1.95;0.40;;;4.90;99.90;;;;;;5035629;28;20041;-91
2022/01/13 08:15:23;;;;;;;0.00;0.00;;;4.80;99.90;;;;;;5048869;28;20504;-92
2022/01/13 08:21:00;;;;;;;1.88;0.82;;;4.90;99.90;;;;;;5053395;28;20095;-94
2022/01/13 08:23:26;;;;;;;0.85;0.35;;;4.90;99.90;;;;;;5037218;28;20049;-92
2022/01/13 08:26:06;;;;;;;6.80;1.58;;;5.10;99.90;;;;;;5037210;28;20059;-94
2022/01/13 08:28:32;;;;;;;0.52;0.52;;;4.90;99.90;;;;;;5036961;28;20049;-92
2022/01/13 08:30:58;;;;;;;2.30;0.22;;;4.90;99.90;;;;;;5036839;28;20044;-85
2022/01/13 08:33:25;;;;;;;0.20;0.20;;;4.90;99.90;;;;;;5036968;28;20055;-92
2022/01/13 08:35:51;;;;;;;0.63;0.30;;;5.00;99.90;;;;;;5037188;28;20060;-92
2022/01/13 08:38:19;;;;;;;3.10;0.40;;;5.00;99.90;;;;;;5036300;28;20067;-89
2022/01/13 08:40:53;;;;;;;2.50;0.88;;;5.30;99.90;;;;;;5052402;28;20045;-89
2022/01/13 08:43:20;;;;;;;0.00;0.00;;;5.00;99.90;;;;;;5036793;28;20041;-89
2022/01/13 08:45:47;;;;;;;0.20;0.05;;;5.00;99.90;;;;;;5052797;28;20041;-89
2022/01/13 08:48:12;;;;;;;0.00;0.00;;;5.60;99.90;;;;;;5036035;28;20045;-89
2022/01/13 08:50:39;;;;;;;2.95;1.13;;;5.00;99.90;;;;;;5052801;28;20140;-89
2022/01/13 08:53:05;;;;;;;0.63;0.63;;;5.40;99.90;;;;;;5052759;28;20102;-89
2022/01/13 08:55:31;;;;;;;3.53;0.75;;;5.50;99.90;;;;;;5036476;28;20048;-90
2022/01/13 08:57:57;;;;;;;0.50;0.40;;;5.10;99.90;;;;;;5052814;28;20084;-90
2022/01/13 09:00:23;;;;;;;0.25;0.25;;;4.40;99.90;;;;;;5052692;28;20099;-90
2022/01/13 09:02:49;;;;;;;0.10;0.10;;;5.00;99.90;;;;;;5036318;28;20052;-89
2022/01/13 09:05:18;;;;;;;0.30;0.30;;;5.10;99.90;;;;;;5036181;28;20045;-90
2022/01/13 09:07:44;;;;;;;1.77;0.95;;;5.20;99.90;;;;;;5036299;28;20056;-90
2022/01/13 09:10:12;;;;;;;2.05;1.05;;;5.20;99.90;;;;;;5053022;28;20056;-90
2022/01/13 09:12:38;;;;;;;1.27;0.95;;;5.10;99.90;;;;;;5056776;28;20037;-90
2022/01/13 09:15:16;;;;;;;0.50;0.50;;;5.10;99.90;;;;;;5040261;28;20136;-91
2022/01/13 09:17:44;;;;;;;0.50;0.50;;;5.10;99.90;;;;;;5040034;28;20053;-90
2022/01/13 09:20:15;;;;;;;0.20;0.10;;;5.40;99.90;;;;;;5039854;28;20048;-90
2022/01/13 09:22:41;;;;;;;0.32;0.10;;;5.40;99.90;;;;;;5040656;28;20400;-90
2022/01/13 09:25:11;;;;;;;2.65;0.25;;;5.60;99.90;;;;;;5039921;28;20049;-90
2022/01/13 09:27:41;;;;;;;1.27;0.93;;;5.20;99.90;;;;;;5040301;28;20106;-90
2022/01/13 09:30:12;;;;;;;0.28;0.20;;;5.20;99.90;;;;;;5056349;28;20136;-90
2022/01/13 09:32:38;;;;;;;1.60;1.00;;;5.20;99.90;;;;;;5039916;28;20052;-90
2022/01/13 09:35:07;;;;;;;0.05;0.05;;;5.20;99.90;;;;;;5039136;28;20114;-90
2022/01/13 09:37:34;;;;;;;0.55;0.55;;;5.20;99.90;;;;;;5056739;28;20166;-90
2022/01/13 09:40:00;;;;;;;4.18;0.52;;;5.20;99.90;;;;;;5039513;28;20037;-90
2022/01/13 09:42:26;;;;;;;0.08;0.08;;;5.20;99.90;;;;;;5056205;28;20049;-89
2022/01/13 09:44:55;;;;;;;0.50;0.50;;;5.10;99.90;;;;;;5056176;28;20052;-90
2022/01/13 09:47:21;;;;;;;0.75;0.43;;;5.40;99.90;;;;;;5055834;28;20039;-90
2022/01/13 09:49:48;;;;;;;0.00;0.00;;;5.20;99.90;;;;;;5038958;28;20045;-90
2022/01/13 09:52:13;;;;;;;0.10;0.10;;;5.20;99.90;;;;;;5039098;28;20053;-87
2022/01/13 09:54:42;;;;;;;0.00;0.00;;;5.30;99.90;;;;;;5039111;28;20059;-88
2022/01/13 09:57:08;;;;;;;0.08;0.08;;;5.70;99.90;;;;;;5038105;28;20056;-87
2022/01/13 09:59:34;;;;;;;0.08;0.08;;;5.40;99.90;;;;;;5038073;28;20098;-87
2022/01/13 10:02:00;;;;;;;0.00;0.00;;;6.30;99.90;;;;;;5055870;28;20049;-86
2022/01/13 10:04:50;;;;;;;2.53;1.08;;;5.10;99.90;;;;;;5055581;28;20044;-87
2022/01/13 10:07:36;;;;;;;1.77;0.75;;;5.30;99.90;;;;;;5055442;28;20052;-87
2022/01/13 10:10:06;;;;;;;0.00;0.00;;;5.30;99.90;;;;;;5055271;28;20394;-87
2022/01/13 10:12:41;;;;;;;2.45;0.20;;;5.30;99.90;;;;;;5038644;28;20045;-87
2022/01/13 10:17:45;;;;;;;0.43;0.43;;;5.30;99.90;;;;;;5034061;28;20053;-88
2022/01/13 10:20:14;;;;;;;7.32;0.55;;;5.40;99.90;;;;;;5033359;28;20046;-87
2022/01/13 10:22:41;;;;;;;1.15;0.15;;;5.30;99.90;;;;;;5042606;28;20078;-87
2022/01/13 10:25:08;;;;;;;0.55;0.50;;;5.30;99.90;;;;;;5053133;28;20056;-87
2022/01/13 10:27:36;;;;;;;0.60;0.60;;;5.30;99.90;;;;;;5054215;28;20182;-87
2022/01/13 10:30:16;;;;;;;1.33;0.73;;;5.30;99.90;;;;;;5038190;28;20041;-87
2022/01/13 10:32:46;;;;;;;2.17;0.43;;;5.30;99.90;;;;;;5054865;28;20067;-87
2022/01/13 10:35:17;;;;;;;0.30;0.25;;;5.30;99.90;;;;;;5054588;28;20048;-87
2022/01/13 10:37:53;;;;;;;3.72;0.45;;;4.90;99.90;;;;;;5039125;28;20111;-89
2022/01/13 10:40:27;;;;;;;0.63;0.63;;;5.30;99.90;;;;;;5038653;28;20045;-89
2022/01/13 10:45:26;;;;;;;0.32;0.32;;;5.40;99.90;;;;;;5056656;28;20052;-93
2022/01/13 10:48:04;;;;;;;0.80;0.17;;;5.40;99.90;;;;;;5039630;28;20080;-93
2022/01/13 10:50:46;;;;;;;0.00;0.00;;;5.40;99.90;;;;;;5039244;28;20048;-93
2022/01/13 10:53:21;;;;;;;0.17;0.17;;;5.50;99.90;;;;;;5038708;28;20040;-92
2022/01/13 10:55:51;;;;;;;1.85;0.55;;;5.40;99.90;;;;;;5039063;28;20088;-93
2022/01/13 10:58:22;;;;;;;0.63;0.63;;;5.70;99.90;;;;;;5038841;28;20102;-94
2022/01/13 11:00:51;;;;;;;0.82;0.82;;;5.50;99.90;;;;;;5038447;28;20500;-92
2022/01/13 11:03:23;;;;;;;1.40;1.00;;;5.50;99.90;;;;;;5038843;28;20122;-93
2022/01/13 11:05:51;;;;;;;1.05;0.40;;;5.50;99.90;;;;;;5038632;28;20503;-93
2022/01/13 11:08:44;;;;;;;1.85;1.13;;;6.00;99.90;;;;;;5038242;28;20066;-93
2022/01/13 11:11:21;;;;;;;0.52;0.52;;;5.50;99.90;;;;;;5038369;28;20127;-93
2022/01/13 11:13:53;;;;;;;0.43;0.30;;;5.50;99.90;;;;;;5039236;28;20051;-94
2022/01/13 11:16:20;;;;;;;0.88;0.38;;;5.50;99.90;;;;;;5054610;28;20365;-93
2022/01/13 11:18:46;;;;;;;0.28;0.25;;;5.60;99.90;;;;;;5055704;28;20091;-93
2022/01/13 11:21:12;;;;;;;1.90;0.73;;;5.50;99.90;;;;;;5037909;28;20140;-93
2022/01/13 11:23:38;;;;;;;0.22;0.22;;;5.50;99.90;;;;;;5038269;28;20087;-92
2022/01/13 11:26:06;;;;;;;0.00;0.00;;;5.50;99.90;;;;;;5038219;28;20052;-93
2022/01/13 11:28:39;;;;;;;2.97;0.95;;;5.50;99.90;;;;;;5037995;28;20079;-93
2022/01/13 11:31:07;;;;;;;0.10;0.10;;;5.50;99.90;;;;;;5038039;28;20055;-92
2022/01/13 11:33:35;;;;;;;0.65;0.65;;;5.60;99.90;;;;;;5037857;28;20370;-94
2022/01/13 11:36:01;;;;;;;1.15;1.15;;;5.50;99.90;;;;;;5038220;28;20068;-93
2022/01/13 11:38:29;;;;;;;0.10;0.10;;;5.70;99.90;;;;;;5038119;28;20041;-93
2022/01/13 11:41:03;;;;;;;0.57;0.32;;;5.60;99.90;;;;;;5037737;28;20052;-93
2022/01/13 11:43:40;;;;;;;0.75;0.45;;;5.70;99.90;;;;;;5055412;28;20041;-93
2022/01/13 11:46:15;;;;;;;3.15;0.85;;;5.70;99.90;;;;;;5037807;28;20105;-94
2022/01/13 11:48:59;;;;;;;0.43;0.43;;;5.90;99.90;;;;;;5037776;28;20041;-93
2022/01/13 11:51:28;;;;;;;0.30;0.22;;;5.60;99.90;;;;;;5038160;28;20044;-93
2022/01/13 11:54:04;;;;;;;0.32;0.20;;;5.60;99.90;;;;;;5037863;28;20049;-93
2022/01/13 11:56:31;;;;;;;0.13;0.05;;;5.60;99.90;;;;;;5055405;28;20045;-92
2022/01/13 11:58:57;;;;;;;1.17;0.40;;;5.60;99.90;;;;;;5037706;28;20106;-93
2022/01/13 12:01:31;;;;;;;0.35;0.35;;;5.80;99.90;;;;;;5053366;28;20056;-93
2022/01/13 12:03:58;;;;;;;5.07;0.40;;;5.60;99.90;;;;;;5037411;28;20040;-93
2022/01/13 12:06:45;;;;;;;0.20;0.20;;;5.60;99.90;;;;;;5053851;28;20493;-93
2022/01/13 12:09:23;;;;;;;7.30;0.50;;;5.60;99.90;;;;;;5037348;28;20131;-93
2022/01/13 12:11:56;;;;;;;1.40;1.17;;;5.70;99.90;;;;;;5037240;28;20140;-93
2022/01/13 12:14:25;;;;;;;1.45;0.65;;;5.70;99.90;;;;;;5054143;28;20064;-93
2022/01/13 12:17:23;;;;;;;0.00;0.00;;;5.70;99.90;;;;;;5038064;28;20045;-93
2022/01/13 12:20:00;;;;;;;3.72;0.30;;;5.70;99.90;;;;;;5037557;28;20037;-93
2022/01/13 12:22:38;;;;;;;1.02;1.02;;;5.70;99.90;;;;;;5037624;28;20037;-93
2022/01/13 12:25:10;;;;;;;0.38;0.38;;;5.70;99.90;;;;;;5037371;28;20132;-93
2022/01/13 12:27:39;;;;;;;0.20;0.20;;;5.70;99.90;;;;;;5053109;28;20045;-92
2022/01/13 12:30:17;;;;;;;0.55;0.55;;;6.00;99.90;;;;;;5053504;28;20088;-92
2022/01/13 12:32:46;;;;;;;0.52;0.20;;;5.70;99.90;;;;;;5037433;28;20045;-93
2022/01/13 12:35:30;;;;;;;5.03;0.50;;;5.70;99.90;;;;;;5037439;28;20094;-92
2022/01/13 12:38:14;;;;;;;0.43;0.43;;;5.80;99.90;;;;;;5037043;28;20056;-92
2022/01/13 12:41:01;;;;;;;2.53;1.35;;;5.80;99.90;;;;;;5037150;28;20080;-92
2022/01/13 12:46:17;;;;;;;0.98;0.35;;;5.80;99.90;;;;;;5053015;28;20106;-93
2022/01/13 12:48:45;;;;;;;10.25;0.68;;;5.80;99.90;;;;;;5054091;28;20041;-92
2022/01/13 12:51:15;;;;;;;3.40;0.50;;;6.60;99.90;;;;;;5036950;28;20041;-93
2022/01/13 12:53:42;;;;;;;1.52;1.50;;;5.80;99.90;;;;;;5036700;28;20509;-93
2022/01/13 12:56:12;;;;;;;0.32;0.32;;;5.90;99.90;;;;;;5036815;28;20045;-93
2022/01/13 12:58:43;;;;;;;1.52;1.42;;;5.80;99.90;;;;;;5036622;28;20048;-93
2022/01/13 13:01:17;;;;;;;12.88;0.70;;;6.20;99.90;;;;;;5036535;28;20049;-93
2022/01/13 13:04:01;;;;;;;0.98;0.88;;;5.80;99.90;;;;;;5036583;28;20432;-94
2022/01/13 13:06:33;;;;;;;0.20;0.15;;;5.80;99.90;;;;;;5036740;28;20484;-93
2022/01/13 13:09:12;;;;;;;0.15;0.15;;;5.80;99.90;;;;;;5037026;28;20095;-94
2022/01/13 13:11:49;;;;;;;1.10;1.10;;;6.10;99.90;;;;;;5036757;28;20539;-93
2022/01/13 13:14:22;;;;;;;0.20;0.20;;;5.90;99.90;;;;;;5054209;28;20123;-93
2022/01/13 13:16:53;;;;;;;0.80;0.75;;;6.10;99.90;;;;;;5053109;28;20137;-93
2022/01/13 13:19:19;;;;;;;0.90;0.50;;;5.90;99.90;;;;;;5037160;28;20049;-93
2022/01/13 13:21:52;;;;;;;1.98;0.98;;;6.20;99.90;;;;;;5036111;28;20041;-94
2022/01/13 13:24:22;;;;;;;1.80;0.60;;;6.10;99.90;;;;;;5036953;28;20106;-94
2022/01/13 13:26:48;;;;;;;0.30;0.30;;;5.90;99.90;;;;;;5037053;28;20465;-93
2022/01/13 13:29:23;;;;;;;0.17;0.17;;;5.90;99.90;;;;;;5036494;28;20064;-94
2022/01/13 13:31:56;;;;;;;0.10;0.10;;;5.90;99.90;;;;;;5036769;28;20045;-93
2022/01/13 13:34:27;;;;;;;0.70;0.10;;;5.90;99.90;;;;;;5052286;28;20144;-93
2022/01/13 13:36:53;;;;;;;0.20;0.20;;;5.90;99.90;;;;;;5052850;28;20048;-94
2022/01/13 13:39:23;;;;;;;0.60;0.40;;;6.10;99.90;;;;;;5035964;28;20045;-94
2022/01/13 13:41:53;;;;;;;0.75;0.40;;;6.60;99.90;;;;;;5036310;28;20041;-93